sensor_id;sensor_type;location;lat;lon;timestamp;P1;durP1;ratioP1;P2;durP2;ratioP2
40164;SDS011;25882;51.120;17.248;2023-04-24T00:02:01;13.85;;;8.95;;
40164;SDS011;25882;51.120;17.248;2023-04-24T00:04:27;15.57;;;10.52;;
40164;SDS011;25882;51.120;17.248;2023-04-24T00:06:54;14.65;;;9.77;;
40164;SDS011;25882;51.120;17.248;2023-04-24T00:09:22;15.02;;;9.82;;
40164;SDS011;25882;51.120;17.248;2023-04-24T00:11:48;16.40;;;10.05;;
40164;SDS011;25882;51.120;17.248;2023-04-24T00:14:14;15.52;;;10.32;;
40164;SDS011;25882;51.120;17.248;2023-04-24T00:16:40;15.88;;;8.77;;
40164;SDS011;25882;51.120;17.248;2023-04-24T00:19:06;15.80;;;10.02;;
40164;SDS011;25882;51.120;17.248;2023-04-24T00:21:33;14.98;;;9.60;;
40164;SDS011;25882;51.120;17.248;2023-04-24T00:24:00;16.15;;;9.70;;
40164;SDS011;25882;51.120;17.248;2023-04-24T00:26:27;13.93;;;9.77;;
40164;SDS011;25882;51.120;17.248;2023-04-24T00:28:53;20.35;;;10.82;;
40164;SDS011;25882;51.120;17.248;2023-04-24T00:31:19;16.73;;;10.02;;
40164;SDS011;25882;51.120;17.248;2023-04-24T00:33:45;15.20;;;10.23;;
40164;SDS011;25882;51.120;17.248;2023-04-24T00:36:11;16.15;;;10.20;;
40164;SDS011;25882;51.120;17.248;2023-04-24T00:38:37;15.55;;;10.60;;
40164;SDS011;25882;51.120;17.248;2023-04-24T00:41:05;21.15;;;11.15;;
40164;SDS011;25882;51.120;17.248;2023-04-24T00:43:31;19.55;;;11.45;;
40164;SDS011;25882;51.120;17.248;2023-04-24T00:45:57;16.52;;;10.40;;
40164;SDS011;25882;51.120;17.248;2023-04-24T00:48:24;16.00;;;10.25;;
40164;SDS011;25882;51.120;17.248;2023-04-24T00:50:51;15.10;;;10.82;;
40164;SDS011;25882;51.120;17.248;2023-04-24T00:53:17;18.85;;;11.93;;
40164;SDS011;25882;51.120;17.248;2023-04-24T00:55:43;17.40;;;11.38;;
40164;SDS011;25882;51.120;17.248;2023-04-24T00:58:10;21.33;;;12.82;;
40164;SDS011;25882;51.120;17.248;2023-04-24T01:00:36;18.05;;;12.13;;
40164;SDS011;25882;51.120;17.248;2023-04-24T01:03:03;18.35;;;11.18;;
40164;SDS011;25882;51.120;17.248;2023-04-24T01:05:30;20.98;;;12.70;;
40164;SDS011;25882;51.120;17.248;2023-04-24T01:07:56;17.95;;;11.85;;
40164;SDS011;25882;51.120;17.248;2023-04-24T01:10:23;17.13;;;11.23;;
40164;SDS011;25882;51.120;17.248;2023-04-24T01:12:49;18.33;;;11.80;;
40164;SDS011;25882;51.120;17.248;2023-04-24T01:15:17;17.90;;;12.15;;
40164;SDS011;25882;51.120;17.248;2023-04-24T01:17:43;18.02;;;12.05;;
40164;SDS011;25882;51.120;17.248;2023-04-24T01:20:09;20.90;;;12.77;;
40164;SDS011;25882;51.120;17.248;2023-04-24T01:22:37;17.65;;;13.00;;
40164;SDS011;25882;51.120;17.248;2023-04-24T01:25:03;20.50;;;11.85;;
40164;SDS011;25882;51.120;17.248;2023-04-24T01:27:30;20.23;;;12.75;;
40164;SDS011;25882;51.120;17.248;2023-04-24T01:29:56;17.45;;;12.23;;
40164;SDS011;25882;51.120;17.248;2023-04-24T01:32:22;19.90;;;12.02;;
40164;SDS011;25882;51.120;17.248;2023-04-24T01:34:49;17.98;;;12.45;;
40164;SDS011;25882;51.120;17.248;2023-04-24T01:37:16;17.38;;;12.23;;
40164;SDS011;25882;51.120;17.248;2023-04-24T01:39:44;24.15;;;12.52;;
40164;SDS011;25882;51.120;17.248;2023-04-24T01:42:12;21.50;;;14.27;;
40164;SDS011;25882;51.120;17.248;2023-04-24T01:44:39;16.42;;;11.80;;
40164;SDS011;25882;51.120;17.248;2023-04-24T01:47:05;20.65;;;12.35;;
40164;SDS011;25882;51.120;17.248;2023-04-24T01:49:31;19.13;;;12.93;;
40164;SDS011;25882;51.120;17.248;2023-04-24T01:51:58;17.35;;;12.27;;
40164;SDS011;25882;51.120;17.248;2023-04-24T01:54:24;20.23;;;12.45;;
40164;SDS011;25882;51.120;17.248;2023-04-24T01:56:51;20.33;;;13.02;;
40164;SDS011;25882;51.120;17.248;2023-04-24T01:59:17;15.40;;;11.23;;
40164;SDS011;25882;51.120;17.248;2023-04-24T02:01:46;18.40;;;11.80;;
40164;SDS011;25882;51.120;17.248;2023-04-24T02:04:12;21.23;;;12.65;;
40164;SDS011;25882;51.120;17.248;2023-04-24T02:06:40;17.40;;;11.63;;
40164;SDS011;25882;51.120;17.248;2023-04-24T02:09:06;17.83;;;12.20;;
40164;SDS011;25882;51.120;17.248;2023-04-24T02:11:32;16.20;;;11.25;;
40164;SDS011;25882;51.120;17.248;2023-04-24T02:13:59;19.73;;;13.10;;
40164;SDS011;25882;51.120;17.248;2023-04-24T02:16:26;16.98;;;11.90;;
40164;SDS011;25882;51.120;17.248;2023-04-24T02:18:55;16.60;;;11.88;;
40164;SDS011;25882;51.120;17.248;2023-04-24T02:21:21;17.83;;;12.70;;
40164;SDS011;25882;51.120;17.248;2023-04-24T02:23:48;15.25;;;11.23;;
40164;SDS011;25882;51.120;17.248;2023-04-24T02:26:13;18.83;;;12.27;;
40164;SDS011;25882;51.120;17.248;2023-04-24T02:28:41;17.45;;;11.98;;
40164;SDS011;25882;51.120;17.248;2023-04-24T02:31:08;16.50;;;11.00;;
40164;SDS011;25882;51.120;17.248;2023-04-24T02:33:35;17.17;;;11.77;;
40164;SDS011;25882;51.120;17.248;2023-04-24T02:36:01;14.43;;;11.45;;
40164;SDS011;25882;51.120;17.248;2023-04-24T02:38:27;16.48;;;11.43;;
40164;SDS011;25882;51.120;17.248;2023-04-24T02:40:53;20.15;;;12.40;;
40164;SDS011;25882;51.120;17.248;2023-04-24T02:43:20;16.33;;;11.48;;
40164;SDS011;25882;51.120;17.248;2023-04-24T02:45:46;25.80;;;12.63;;
40164;SDS011;25882;51.120;17.248;2023-04-24T02:48:13;18.75;;;11.90;;
40164;SDS011;25882;51.120;17.248;2023-04-24T02:50:39;16.40;;;12.02;;
40164;SDS011;25882;51.120;17.248;2023-04-24T02:53:05;19.40;;;12.32;;
40164;SDS011;25882;51.120;17.248;2023-04-24T02:55:31;20.52;;;12.13;;
40164;SDS011;25882;51.120;17.248;2023-04-24T02:57:57;14.40;;;10.82;;
40164;SDS011;25882;51.120;17.248;2023-04-24T03:00:23;17.23;;;12.27;;
40164;SDS011;25882;51.120;17.248;2023-04-24T03:02:49;16.40;;;11.13;;
40164;SDS011;25882;51.120;17.248;2023-04-24T03:05:17;16.65;;;11.45;;
40164;SDS011;25882;51.120;17.248;2023-04-24T03:07:43;15.82;;;11.10;;
40164;SDS011;25882;51.120;17.248;2023-04-24T03:10:09;16.33;;;11.15;;
40164;SDS011;25882;51.120;17.248;2023-04-24T03:12:35;19.45;;;12.05;;
40164;SDS011;25882;51.120;17.248;2023-04-24T03:15:01;18.50;;;12.27;;
40164;SDS011;25882;51.120;17.248;2023-04-24T03:17:28;19.17;;;12.15;;
40164;SDS011;25882;51.120;17.248;2023-04-24T03:19:54;24.55;;;11.93;;
40164;SDS011;25882;51.120;17.248;2023-04-24T03:22:21;18.35;;;11.90;;
40164;SDS011;25882;51.120;17.248;2023-04-24T03:24:47;14.95;;;10.77;;
40164;SDS011;25882;51.120;17.248;2023-04-24T03:27:14;18.27;;;10.77;;
40164;SDS011;25882;51.120;17.248;2023-04-24T03:29:40;19.90;;;11.95;;
40164;SDS011;25882;51.120;17.248;2023-04-24T03:32:06;16.05;;;11.35;;
40164;SDS011;25882;51.120;17.248;2023-04-24T03:34:32;14.65;;;11.30;;
40164;SDS011;25882;51.120;17.248;2023-04-24T03:36:58;18.50;;;11.73;;
40164;SDS011;25882;51.120;17.248;2023-04-24T03:39:25;20.77;;;11.43;;
40164;SDS011;25882;51.120;17.248;2023-04-24T03:41:51;17.55;;;11.20;;
40164;SDS011;25882;51.120;17.248;2023-04-24T03:44:17;18.52;;;11.10;;
40164;SDS011;25882;51.120;17.248;2023-04-24T03:46:43;14.40;;;11.35;;
40164;SDS011;25882;51.120;17.248;2023-04-24T03:49:09;16.98;;;10.98;;
40164;SDS011;25882;51.120;17.248;2023-04-24T03:51:36;17.17;;;11.70;;
40164;SDS011;25882;51.120;17.248;2023-04-24T03:54:02;17.30;;;12.35;;
40164;SDS011;25882;51.120;17.248;2023-04-24T03:56:30;18.95;;;11.32;;
40164;SDS011;25882;51.120;17.248;2023-04-24T03:58:56;17.35;;;12.02;;
40164;SDS011;25882;51.120;17.248;2023-04-24T04:01:23;17.67;;;11.55;;
40164;SDS011;25882;51.120;17.248;2023-04-24T04:03:49;17.00;;;11.57;;
40164;SDS011;25882;51.120;17.248;2023-04-24T04:06:15;22.05;;;12.15;;
40164;SDS011;25882;51.120;17.248;2023-04-24T04:08:41;17.77;;;11.88;;
40164;SDS011;25882;51.120;17.248;2023-04-24T04:11:08;19.25;;;12.77;;
40164;SDS011;25882;51.120;17.248;2023-04-24T04:13:35;19.40;;;11.90;;
40164;SDS011;25882;51.120;17.248;2023-04-24T04:16:01;20.63;;;13.32;;
40164;SDS011;25882;51.120;17.248;2023-04-24T04:18:27;19.00;;;12.32;;
40164;SDS011;25882;51.120;17.248;2023-04-24T04:20:53;22.30;;;12.77;;
40164;SDS011;25882;51.120;17.248;2023-04-24T04:23:19;19.02;;;12.55;;
40164;SDS011;25882;51.120;17.248;2023-04-24T04:25:46;18.48;;;12.60;;
40164;SDS011;25882;51.120;17.248;2023-04-24T04:28:12;16.33;;;11.40;;
40164;SDS011;25882;51.120;17.248;2023-04-24T04:30:40;17.50;;;11.88;;
40164;SDS011;25882;51.120;17.248;2023-04-24T04:33:06;20.42;;;11.80;;
40164;SDS011;25882;51.120;17.248;2023-04-24T04:35:33;17.98;;;11.45;;
40164;SDS011;25882;51.120;17.248;2023-04-24T04:38:00;19.20;;;11.70;;
40164;SDS011;25882;51.120;17.248;2023-04-24T04:40:26;21.35;;;11.43;;
40164;SDS011;25882;51.120;17.248;2023-04-24T04:42:53;18.15;;;11.88;;
40164;SDS011;25882;51.120;17.248;2023-04-24T04:45:19;16.02;;;11.73;;
40164;SDS011;25882;51.120;17.248;2023-04-24T04:47:47;21.88;;;12.07;;
40164;SDS011;25882;51.120;17.248;2023-04-24T04:50:14;19.23;;;11.38;;
40164;SDS011;25882;51.120;17.248;2023-04-24T04:52:41;17.48;;;11.48;;
40164;SDS011;25882;51.120;17.248;2023-04-24T04:55:08;15.38;;;11.18;;
40164;SDS011;25882;51.120;17.248;2023-04-24T04:57:34;21.50;;;11.90;;
40164;SDS011;25882;51.120;17.248;2023-04-24T05:00:00;18.17;;;11.57;;
40164;SDS011;25882;51.120;17.248;2023-04-24T05:02:26;18.25;;;10.98;;
40164;SDS011;25882;51.120;17.248;2023-04-24T05:04:54;18.88;;;11.38;;
40164;SDS011;25882;51.120;17.248;2023-04-24T05:07:19;18.35;;;11.70;;
40164;SDS011;25882;51.120;17.248;2023-04-24T05:09:46;18.60;;;11.50;;
40164;SDS011;25882;51.120;17.248;2023-04-24T05:12:12;17.15;;;11.20;;
40164;SDS011;25882;51.120;17.248;2023-04-24T05:14:38;22.25;;;11.63;;
40164;SDS011;25882;51.120;17.248;2023-04-24T05:17:04;16.38;;;11.35;;
40164;SDS011;25882;51.120;17.248;2023-04-24T05:19:31;17.10;;;11.80;;
40164;SDS011;25882;51.120;17.248;2023-04-24T05:22:02;22.60;;;12.18;;
40164;SDS011;25882;51.120;17.248;2023-04-24T05:24:30;17.42;;;11.10;;
40164;SDS011;25882;51.120;17.248;2023-04-24T05:26:56;17.65;;;10.07;;
40164;SDS011;25882;51.120;17.248;2023-04-24T05:29:22;15.20;;;10.88;;
40164;SDS011;25882;51.120;17.248;2023-04-24T05:31:48;21.48;;;11.88;;
40164;SDS011;25882;51.120;17.248;2023-04-24T05:34:15;18.50;;;11.55;;
40164;SDS011;25882;51.120;17.248;2023-04-24T05:36:42;15.63;;;10.23;;
40164;SDS011;25882;51.120;17.248;2023-04-24T05:39:09;14.65;;;10.02;;
40164;SDS011;25882;51.120;17.248;2023-04-24T05:41:35;12.65;;;9.48;;
40164;SDS011;25882;51.120;17.248;2023-04-24T05:44:01;17.17;;;10.15;;
40164;SDS011;25882;51.120;17.248;2023-04-24T05:46:27;15.43;;;9.73;;
40164;SDS011;25882;51.120;17.248;2023-04-24T05:48:53;14.93;;;9.52;;
40164;SDS011;25882;51.120;17.248;2023-04-24T05:51:19;16.77;;;8.88;;
40164;SDS011;25882;51.120;17.248;2023-04-24T05:53:46;13.85;;;9.10;;
40164;SDS011;25882;51.120;17.248;2023-04-24T05:56:13;12.30;;;8.90;;
40164;SDS011;25882;51.120;17.248;2023-04-24T05:58:41;12.35;;;9.27;;
40164;SDS011;25882;51.120;17.248;2023-04-24T06:01:07;13.02;;;9.85;;
40164;SDS011;25882;51.120;17.248;2023-04-24T06:03:33;18.25;;;9.82;;
40164;SDS011;25882;51.120;17.248;2023-04-24T06:05:59;17.83;;;8.73;;
40164;SDS011;25882;51.120;17.248;2023-04-24T06:08:26;13.40;;;8.77;;
40164;SDS011;25882;51.120;17.248;2023-04-24T06:10:52;15.88;;;9.73;;
40164;SDS011;25882;51.120;17.248;2023-04-24T06:13:20;16.30;;;9.75;;
40164;SDS011;25882;51.120;17.248;2023-04-24T06:15:46;15.52;;;9.18;;
40164;SDS011;25882;51.120;17.248;2023-04-24T06:18:12;16.63;;;9.75;;
40164;SDS011;25882;51.120;17.248;2023-04-24T06:20:39;12.70;;;9.07;;
40164;SDS011;25882;51.120;17.248;2023-04-24T06:23:05;15.25;;;9.90;;
40164;SDS011;25882;51.120;17.248;2023-04-24T06:25:31;12.88;;;10.18;;
40164;SDS011;25882;51.120;17.248;2023-04-24T06:27:58;15.07;;;8.57;;
40164;SDS011;25882;51.120;17.248;2023-04-24T06:30:25;11.73;;;8.57;;
40164;SDS011;25882;51.120;17.248;2023-04-24T06:32:53;11.50;;;7.80;;
40164;SDS011;25882;51.120;17.248;2023-04-24T06:35:19;10.43;;;7.63;;
40164;SDS011;25882;51.120;17.248;2023-04-24T06:37:45;13.45;;;8.23;;
40164;SDS011;25882;51.120;17.248;2023-04-24T06:40:11;11.68;;;7.57;;
40164;SDS011;25882;51.120;17.248;2023-04-24T06:42:38;12.40;;;8.30;;
40164;SDS011;25882;51.120;17.248;2023-04-24T06:45:05;13.48;;;7.95;;
40164;SDS011;25882;51.120;17.248;2023-04-24T06:47:33;12.90;;;6.93;;
40164;SDS011;25882;51.120;17.248;2023-04-24T06:50:00;11.68;;;6.80;;
40164;SDS011;25882;51.120;17.248;2023-04-24T06:52:26;9.75;;;6.57;;
40164;SDS011;25882;51.120;17.248;2023-04-24T06:54:52;8.07;;;6.72;;
40164;SDS011;25882;51.120;17.248;2023-04-24T06:57:18;9.80;;;5.93;;
40164;SDS011;25882;51.120;17.248;2023-04-24T06:59:45;8.40;;;5.20;;
40164;SDS011;25882;51.120;17.248;2023-04-24T07:02:11;10.50;;;5.88;;
40164;SDS011;25882;51.120;17.248;2023-04-24T07:04:39;6.50;;;4.95;;
40164;SDS011;25882;51.120;17.248;2023-04-24T07:07:05;9.32;;;5.60;;
40164;SDS011;25882;51.120;17.248;2023-04-24T07:09:32;6.60;;;4.75;;
40164;SDS011;25882;51.120;17.248;2023-04-24T07:11:58;10.48;;;4.93;;
40164;SDS011;25882;51.120;17.248;2023-04-24T07:14:24;7.70;;;4.60;;
40164;SDS011;25882;51.120;17.248;2023-04-24T07:16:50;6.10;;;4.40;;
40164;SDS011;25882;51.120;17.248;2023-04-24T07:19:16;9.73;;;4.68;;
40164;SDS011;25882;51.120;17.248;2023-04-24T07:21:44;7.10;;;4.78;;
40164;SDS011;25882;51.120;17.248;2023-04-24T07:24:10;8.45;;;4.90;;
40164;SDS011;25882;51.120;17.248;2023-04-24T07:26:38;9.57;;;4.75;;
40164;SDS011;25882;51.120;17.248;2023-04-24T07:29:05;7.40;;;4.68;;
40164;SDS011;25882;51.120;17.248;2023-04-24T07:31:31;7.90;;;5.07;;
40164;SDS011;25882;51.120;17.248;2023-04-24T07:33:57;8.98;;;4.80;;
40164;SDS011;25882;51.120;17.248;2023-04-24T07:36:24;8.25;;;4.75;;
40164;SDS011;25882;51.120;17.248;2023-04-24T07:38:52;6.35;;;5.18;;
40164;SDS011;25882;51.120;17.248;2023-04-24T07:41:20;8.45;;;4.72;;
40164;SDS011;25882;51.120;17.248;2023-04-24T07:43:46;7.90;;;4.43;;
40164;SDS011;25882;51.120;17.248;2023-04-24T07:46:13;7.38;;;4.68;;
40164;SDS011;25882;51.120;17.248;2023-04-24T07:48:39;8.75;;;4.63;;
40164;SDS011;25882;51.120;17.248;2023-04-24T07:51:06;7.22;;;4.55;;
40164;SDS011;25882;51.120;17.248;2023-04-24T07:53:32;7.30;;;4.70;;
40164;SDS011;25882;51.120;17.248;2023-04-24T07:55:59;7.50;;;4.93;;
40164;SDS011;25882;51.120;17.248;2023-04-24T07:58:25;5.75;;;4.72;;
40164;SDS011;25882;51.120;17.248;2023-04-24T08:00:52;7.63;;;4.88;;
40164;SDS011;25882;51.120;17.248;2023-04-24T08:03:18;8.00;;;4.55;;
40164;SDS011;25882;51.120;17.248;2023-04-24T08:05:45;8.27;;;4.80;;
40164;SDS011;25882;51.120;17.248;2023-04-24T08:08:11;6.13;;;4.40;;
40164;SDS011;25882;51.120;17.248;2023-04-24T08:10:38;6.13;;;4.90;;
40164;SDS011;25882;51.120;17.248;2023-04-24T08:13:05;7.85;;;5.38;;
40164;SDS011;25882;51.120;17.248;2023-04-24T08:15:32;7.78;;;5.53;;
40164;SDS011;25882;51.120;17.248;2023-04-24T08:17:57;8.18;;;5.30;;
40164;SDS011;25882;51.120;17.248;2023-04-24T08:20:24;8.45;;;5.40;;
40164;SDS011;25882;51.120;17.248;2023-04-24T08:22:52;10.77;;;5.57;;
40164;SDS011;25882;51.120;17.248;2023-04-24T08:25:20;11.55;;;6.97;;
40164;SDS011;25882;51.120;17.248;2023-04-24T08:27:48;9.05;;;6.22;;
40164;SDS011;25882;51.120;17.248;2023-04-24T08:30:15;11.80;;;6.50;;
40164;SDS011;25882;51.120;17.248;2023-04-24T08:32:41;9.52;;;6.38;;
40164;SDS011;25882;51.120;17.248;2023-04-24T08:35:08;8.48;;;6.43;;
40164;SDS011;25882;51.120;17.248;2023-04-24T08:37:37;12.82;;;5.88;;
40164;SDS011;25882;51.120;17.248;2023-04-24T08:40:06;7.60;;;5.93;;
40164;SDS011;25882;51.120;17.248;2023-04-24T08:42:35;8.60;;;5.75;;
40164;SDS011;25882;51.120;17.248;2023-04-24T08:45:03;8.10;;;6.10;;
40164;SDS011;25882;51.120;17.248;2023-04-24T08:47:30;7.63;;;5.22;;
40164;SDS011;25882;51.120;17.248;2023-04-24T08:49:57;10.07;;;5.28;;
40164;SDS011;25882;51.120;17.248;2023-04-24T08:52:25;8.02;;;5.50;;
40164;SDS011;25882;51.120;17.248;2023-04-24T08:54:51;10.23;;;6.15;;
40164;SDS011;25882;51.120;17.248;2023-04-24T08:57:18;7.75;;;4.93;;
40164;SDS011;25882;51.120;17.248;2023-04-24T08:59:45;7.95;;;6.22;;
40164;SDS011;25882;51.120;17.248;2023-04-24T09:02:12;7.28;;;6.22;;
40164;SDS011;25882;51.120;17.248;2023-04-24T09:04:46;7.25;;;5.82;;
40164;SDS011;25882;51.120;17.248;2023-04-24T09:07:12;8.68;;;5.07;;
40164;SDS011;25882;51.120;17.248;2023-04-24T09:09:40;5.90;;;4.97;;
40164;SDS011;25882;51.120;17.248;2023-04-24T09:12:07;9.20;;;5.22;;
40164;SDS011;25882;51.120;17.248;2023-04-24T09:14:36;8.45;;;4.93;;
40164;SDS011;25882;51.120;17.248;2023-04-24T09:31:46;6.97;;;5.30;;
40164;SDS011;25882;51.120;17.248;2023-04-24T09:34:12;6.68;;;5.85;;
40164;SDS011;25882;51.120;17.248;2023-04-24T09:36:39;7.22;;;5.55;;
40164;SDS011;25882;51.120;17.248;2023-04-24T09:39:07;9.68;;;5.05;;
40164;SDS011;25882;51.120;17.248;2023-04-24T09:41:43;6.72;;;5.03;;
40164;SDS011;25882;51.120;17.248;2023-04-24T09:44:11;6.57;;;5.10;;
40164;SDS011;25882;51.120;17.248;2023-04-24T09:46:38;6.30;;;5.38;;
40164;SDS011;25882;51.120;17.248;2023-04-24T09:49:08;7.60;;;5.38;;
40164;SDS011;25882;51.120;17.248;2023-04-24T09:51:36;7.95;;;4.80;;
40164;SDS011;25882;51.120;17.248;2023-04-24T09:54:03;5.72;;;4.85;;
40164;SDS011;25882;51.120;17.248;2023-04-24T09:56:32;7.90;;;5.25;;
40164;SDS011;25882;51.120;17.248;2023-04-24T09:59:04;8.60;;;6.18;;
40164;SDS011;25882;51.120;17.248;2023-04-24T10:01:30;8.13;;;5.82;;
40164;SDS011;25882;51.120;17.248;2023-04-24T10:03:57;6.75;;;4.90;;
40164;SDS011;25882;51.120;17.248;2023-04-24T10:06:24;8.82;;;6.07;;
40164;SDS011;25882;51.120;17.248;2023-04-24T10:08:57;7.18;;;5.50;;
40164;SDS011;25882;51.120;17.248;2023-04-24T10:11:23;15.05;;;6.43;;
40164;SDS011;25882;51.120;17.248;2023-04-24T10:13:51;6.93;;;5.38;;
40164;SDS011;25882;51.120;17.248;2023-04-24T10:16:17;7.53;;;5.22;;
40164;SDS011;25882;51.120;17.248;2023-04-24T10:18:43;5.93;;;5.00;;
40164;SDS011;25882;51.120;17.248;2023-04-24T10:21:09;12.50;;;8.63;;
40164;SDS011;25882;51.120;17.248;2023-04-24T10:23:37;15.43;;;11.95;;
40164;SDS011;25882;51.120;17.248;2023-04-24T10:26:03;7.65;;;5.30;;
40164;SDS011;25882;51.120;17.248;2023-04-24T10:28:29;7.32;;;4.93;;
40164;SDS011;25882;51.120;17.248;2023-04-24T10:30:57;7.10;;;5.10;;
40164;SDS011;25882;51.120;17.248;2023-04-24T10:33:24;8.95;;;5.80;;
40164;SDS011;25882;51.120;17.248;2023-04-24T10:35:51;7.55;;;5.88;;
40164;SDS011;25882;51.120;17.248;2023-04-24T10:38:21;8.35;;;5.53;;
40164;SDS011;25882;51.120;17.248;2023-04-24T10:40:51;8.85;;;6.07;;
40164;SDS011;25882;51.120;17.248;2023-04-24T10:43:23;7.53;;;5.35;;
40164;SDS011;25882;51.120;17.248;2023-04-24T10:50:57;10.57;;;6.28;;
40164;SDS011;25882;51.120;17.248;2023-04-24T10:53:26;9.52;;;6.57;;
40164;SDS011;25882;51.120;17.248;2023-04-24T10:55:58;9.25;;;6.53;;
40164;SDS011;25882;51.120;17.248;2023-04-24T10:58:35;9.00;;;6.15;;
40164;SDS011;25882;51.120;17.248;2023-04-24T11:01:03;8.07;;;5.53;;
40164;SDS011;25882;51.120;17.248;2023-04-24T11:03:30;8.82;;;6.75;;
40164;SDS011;25882;51.120;17.248;2023-04-24T11:05:59;8.68;;;6.38;;
40164;SDS011;25882;51.120;17.248;2023-04-24T11:08:28;8.43;;;6.72;;
40164;SDS011;25882;51.120;17.248;2023-04-24T11:10:57;10.45;;;7.72;;
40164;SDS011;25882;51.120;17.248;2023-04-24T11:13:25;13.68;;;9.00;;
40164;SDS011;25882;51.120;17.248;2023-04-24T11:18:39;11.65;;;8.25;;
40164;SDS011;25882;51.120;17.248;2023-04-24T11:21:09;10.68;;;7.80;;
40164;SDS011;25882;51.120;17.248;2023-04-24T11:23:37;10.48;;;6.60;;
40164;SDS011;25882;51.120;17.248;2023-04-24T11:26:11;7.55;;;5.50;;
40164;SDS011;25882;51.120;17.248;2023-04-24T11:28:43;7.55;;;6.78;;
40164;SDS011;25882;51.120;17.248;2023-04-24T11:34:11;6.60;;;5.20;;
40164;SDS011;25882;51.120;17.248;2023-04-24T11:36:38;9.10;;;6.13;;
40164;SDS011;25882;51.120;17.248;2023-04-24T11:39:04;8.90;;;6.25;;
40164;SDS011;25882;51.120;17.248;2023-04-24T11:41:33;12.65;;;7.93;;
40164;SDS011;25882;51.120;17.248;2023-04-24T11:43:59;7.78;;;5.80;;
40164;SDS011;25882;51.120;17.248;2023-04-24T11:46:28;7.15;;;5.53;;
40164;SDS011;25882;51.120;17.248;2023-04-24T11:48:55;6.25;;;5.35;;
40164;SDS011;25882;51.120;17.248;2023-04-24T11:51:22;8.68;;;5.60;;
40164;SDS011;25882;51.120;17.248;2023-04-24T11:53:48;6.85;;;6.15;;
40164;SDS011;25882;51.120;17.248;2023-04-24T11:56:16;10.38;;;6.03;;
40164;SDS011;25882;51.120;17.248;2023-04-24T11:58:45;8.38;;;5.80;;
40164;SDS011;25882;51.120;17.248;2023-04-24T12:01:12;9.60;;;6.15;;
40164;SDS011;25882;51.120;17.248;2023-04-24T12:03:38;9.45;;;6.05;;
40164;SDS011;25882;51.120;17.248;2023-04-24T12:06:05;8.02;;;5.95;;
40164;SDS011;25882;51.120;17.248;2023-04-24T12:08:33;8.07;;;6.60;;
40164;SDS011;25882;51.120;17.248;2023-04-24T12:10:59;9.05;;;6.22;;
40164;SDS011;25882;51.120;17.248;2023-04-24T12:13:26;7.30;;;6.28;;
40164;SDS011;25882;51.120;17.248;2023-04-24T12:15:53;8.65;;;6.00;;
40164;SDS011;25882;51.120;17.248;2023-04-24T12:18:21;11.88;;;8.23;;
40164;SDS011;25882;51.120;17.248;2023-04-24T12:20:48;12.57;;;8.35;;
40164;SDS011;25882;51.120;17.248;2023-04-24T12:23:14;9.50;;;7.25;;
40164;SDS011;25882;51.120;17.248;2023-04-24T12:25:40;11.35;;;6.93;;
40164;SDS011;25882;51.120;17.248;2023-04-24T12:28:10;11.13;;;7.07;;
40164;SDS011;25882;51.120;17.248;2023-04-24T12:30:39;10.15;;;6.07;;
40164;SDS011;25882;51.120;17.248;2023-04-24T12:33:07;8.77;;;6.20;;
40164;SDS011;25882;51.120;17.248;2023-04-24T12:35:33;7.80;;;5.93;;
40164;SDS011;25882;51.120;17.248;2023-04-24T12:38:09;6.13;;;5.53;;
40164;SDS011;25882;51.120;17.248;2023-04-24T12:40:37;7.05;;;5.78;;
40164;SDS011;25882;51.120;17.248;2023-04-24T12:43:12;11.13;;;6.70;;
40164;SDS011;25882;51.120;17.248;2023-04-24T12:45:38;11.57;;;6.07;;
40164;SDS011;25882;51.120;17.248;2023-04-24T12:48:05;8.82;;;6.13;;
40164;SDS011;25882;51.120;17.248;2023-04-24T12:50:32;8.10;;;5.80;;
40164;SDS011;25882;51.120;17.248;2023-04-24T12:52:58;9.25;;;6.00;;
40164;SDS011;25882;51.120;17.248;2023-04-24T12:55:24;10.20;;;6.20;;
40164;SDS011;25882;51.120;17.248;2023-04-24T12:57:51;7.68;;;6.35;;
40164;SDS011;25882;51.120;17.248;2023-04-24T13:00:18;9.23;;;6.35;;
40164;SDS011;25882;51.120;17.248;2023-04-24T13:02:45;9.10;;;6.72;;
40164;SDS011;25882;51.120;17.248;2023-04-24T13:05:11;11.85;;;7.13;;
40164;SDS011;25882;51.120;17.248;2023-04-24T13:07:41;10.55;;;7.38;;
40164;SDS011;25882;51.120;17.248;2023-04-24T13:10:07;10.40;;;6.47;;
40164;SDS011;25882;51.120;17.248;2023-04-24T13:12:34;9.48;;;6.32;;
40164;SDS011;25882;51.120;17.248;2023-04-24T13:15:00;8.23;;;6.45;;
40164;SDS011;25882;51.120;17.248;2023-04-24T13:17:26;10.15;;;6.85;;
40164;SDS011;25882;51.120;17.248;2023-04-24T13:19:53;12.73;;;6.72;;
40164;SDS011;25882;51.120;17.248;2023-04-24T13:22:20;11.57;;;8.15;;
40164;SDS011;25882;51.120;17.248;2023-04-24T13:24:48;13.02;;;7.50;;
40164;SDS011;25882;51.120;17.248;2023-04-24T13:27:15;11.93;;;8.82;;
40164;SDS011;25882;51.120;17.248;2023-04-24T13:29:41;12.15;;;9.27;;
40164;SDS011;25882;51.120;17.248;2023-04-24T13:32:08;13.25;;;9.80;;
40164;SDS011;25882;51.120;17.248;2023-04-24T13:34:34;12.93;;;10.00;;
40164;SDS011;25882;51.120;17.248;2023-04-24T13:37:00;12.23;;;9.15;;
40164;SDS011;25882;51.120;17.248;2023-04-24T13:39:28;11.98;;;8.73;;
40164;SDS011;25882;51.120;17.248;2023-04-24T13:41:56;11.90;;;9.70;;
40164;SDS011;25882;51.120;17.248;2023-04-24T13:44:22;17.30;;;11.25;;
40164;SDS011;25882;51.120;17.248;2023-04-24T13:46:50;12.32;;;11.02;;
40164;SDS011;25882;51.120;17.248;2023-04-24T13:49:17;14.35;;;11.95;;
40164;SDS011;25882;51.120;17.248;2023-04-24T13:51:44;31.67;;;21.80;;
40164;SDS011;25882;51.120;17.248;2023-04-24T13:54:13;10.70;;;6.65;;
40164;SDS011;25882;51.120;17.248;2023-04-24T13:56:39;6.30;;;4.45;;
40164;SDS011;25882;51.120;17.248;2023-04-24T13:59:06;5.60;;;4.00;;
40164;SDS011;25882;51.120;17.248;2023-04-24T14:01:33;5.85;;;3.92;;
40164;SDS011;25882;51.120;17.248;2023-04-24T14:03:59;10.50;;;5.20;;
40164;SDS011;25882;51.120;17.248;2023-04-24T14:06:25;3.92;;;2.97;;
40164;SDS011;25882;51.120;17.248;2023-04-24T14:08:51;4.90;;;2.33;;
40164;SDS011;25882;51.120;17.248;2023-04-24T14:11:18;4.40;;;3.05;;
40164;SDS011;25882;51.120;17.248;2023-04-24T14:13:45;4.65;;;3.03;;
40164;SDS011;25882;51.120;17.248;2023-04-24T14:16:13;4.88;;;2.78;;
40164;SDS011;25882;51.120;17.248;2023-04-24T14:18:40;6.82;;;2.90;;
40164;SDS011;25882;51.120;17.248;2023-04-24T14:21:06;6.10;;;3.08;;
40164;SDS011;25882;51.120;17.248;2023-04-24T14:23:33;7.00;;;3.97;;
40164;SDS011;25882;51.120;17.248;2023-04-24T14:25:59;8.25;;;3.75;;
40164;SDS011;25882;51.120;17.248;2023-04-24T14:28:25;5.60;;;3.22;;
40164;SDS011;25882;51.120;17.248;2023-04-24T14:30:52;8.05;;;4.13;;
40164;SDS011;25882;51.120;17.248;2023-04-24T14:33:20;10.38;;;6.30;;
40164;SDS011;25882;51.120;17.248;2023-04-24T14:35:47;7.03;;;4.20;;
40164;SDS011;25882;51.120;17.248;2023-04-24T14:38:13;11.63;;;5.97;;
